createdAt,value
2019-01-25T00:01:36.233Z,38.92
2019-01-25T00:04:06.497Z,39.63
2019-01-25T00:06:36.233Z,38.47
2019-01-25T00:09:08.539Z,41.70
2019-01-25T00:11:38.170Z,39.40
2019-01-25T00:14:08.233Z,37.47
2019-01-25T00:16:37.728Z,38.80
2019-01-25T00:19:07.407Z,37.75
2019-01-25T00:21:36.863Z,38.27
2019-01-25T00:24:06.638Z,38.33
2019-01-25T00:26:36.153Z,39.20
2019-01-25T00:29:06.102Z,42.00
2019-01-25T00:31:35.614Z,39.27
2019-01-25T00:34:05.147Z,41.97
2019-01-25T00:36:34.603Z,39.30
2019-01-25T00:39:06.786Z,39.27
2019-01-25T00:41:36.284Z,40.03
2019-01-25T00:44:06.281Z,41.20
2019-01-25T00:46:35.756Z,41.00
2019-01-25T00:49:05.551Z,42.97
2019-01-25T00:51:35.128Z,40.47
2019-01-25T00:54:06.392Z,41.33
2019-01-25T00:56:35.872Z,40.23
2019-01-25T00:59:05.755Z,38.80
2019-01-25T01:01:35.293Z,39.70
2019-01-25T01:04:05.288Z,40.90
2019-01-25T01:06:37.240Z,40.60
2019-01-25T01:09:08.883Z,42.47
2019-01-25T01:11:38.384Z,40.52
2019-01-25T01:14:08.055Z,41.50
2019-01-25T01:16:39.153Z,40.83
2019-01-25T01:19:08.669Z,41.33
2019-01-25T01:21:38.094Z,43.37
2019-01-25T01:24:07.872Z,40.17
2019-01-25T01:26:37.292Z,43.80
2019-01-25T01:29:07.030Z,41.70
2019-01-25T01:31:39.375Z,42.40
2019-01-25T01:34:08.829Z,41.48
2019-01-25T01:36:38.280Z,43.53
2019-01-25T01:39:10.549Z,38.78
2019-01-25T01:41:40.488Z,41.47
2019-01-25T01:44:09.911Z,40.55
2019-01-25T01:46:39.428Z,42.77
2019-01-25T01:49:08.967Z,39.67
2019-01-25T01:51:38.525Z,37.90
2019-01-25T01:54:07.950Z,41.13
2019-01-25T01:56:37.437Z,42.07
2019-01-25T01:59:06.948Z,42.70
2019-01-25T02:01:37.251Z,41.63
2019-01-25T02:04:06.993Z,39.77
2019-01-25T02:06:36.388Z,40.80
2019-01-25T02:09:07.678Z,41.37
2019-01-25T02:11:37.111Z,41.13
2019-01-25T02:14:06.869Z,40.20
2019-01-25T02:16:36.333Z,38.98
2019-01-25T02:19:06.358Z,41.93
2019-01-25T02:21:35.837Z,41.20
2019-01-25T02:24:05.593Z,38.13
2019-01-25T02:26:35.249Z,40.00
2019-01-25T02:29:04.759Z,41.30
2019-01-25T02:31:34.519Z,41.87
2019-01-25T02:34:04.323Z,43.30
2019-01-25T02:36:36.281Z,40.03
2019-01-25T02:39:08.108Z,39.93
2019-01-25T02:41:37.731Z,43.30
2019-01-25T02:44:07.205Z,40.63
2019-01-25T02:46:36.689Z,41.93
2019-01-25T02:49:06.438Z,41.43
2019-01-25T02:51:35.907Z,42.10
2019-01-25T02:54:05.431Z,39.47
2019-01-25T02:56:34.834Z,41.27
2019-01-25T02:59:04.314Z,37.03
2019-01-25T03:01:33.834Z,39.78
2019-01-25T03:04:04.348Z,39.85
2019-01-25T03:06:34.123Z,37.63
2019-01-25T03:09:07.303Z,39.88
2019-01-25T03:11:36.806Z,40.10
2019-01-25T03:14:06.328Z,39.23
2019-01-25T03:16:36.064Z,37.70
2019-01-25T03:19:05.651Z,38.60
2019-01-25T03:21:35.053Z,40.27
2019-01-25T03:24:05.082Z,38.50
2019-01-25T03:26:34.486Z,39.73
2019-01-25T03:29:04.485Z,40.60
2019-01-25T03:31:33.917Z,37.77
2019-01-25T03:34:03.449Z,42.13
2019-01-25T03:36:33.700Z,42.97
2019-01-25T03:39:04.452Z,38.20
2019-01-25T03:41:33.938Z,38.30
2019-01-25T03:44:03.917Z,43.77
2019-01-25T03:46:33.377Z,41.27
2019-01-25T03:49:03.125Z,40.50
2019-01-25T03:51:32.594Z,39.77
2019-01-25T03:54:02.039Z,40.70
2019-01-25T03:56:31.605Z,42.95
2019-01-25T03:59:02.112Z,42.85
2019-01-25T04:01:32.591Z,40.20
2019-01-25T04:04:02.370Z,40.37
2019-01-25T04:06:32.236Z,45.30
2019-01-25T04:09:01.618Z,41.05
2019-01-25T04:11:31.527Z,42.37
2019-01-25T04:14:01.059Z,42.37
2019-01-25T04:16:30.476Z,42.20
2019-01-25T04:18:59.852Z,44.57
2019-01-25T04:21:29.523Z,42.75
2019-01-25T04:23:59.010Z,39.48
2019-01-25T04:26:28.575Z,39.50
2019-01-25T04:28:58.061Z,41.50
2019-01-25T04:31:27.463Z,41.20
2019-01-25T04:36:47.386Z,41.40
2019-01-25T04:39:16.901Z,40.83
2019-01-25T04:41:46.430Z,40.57
2019-01-25T04:44:15.989Z,40.93
2019-01-25T04:46:45.463Z,39.27
2019-01-25T04:49:15.016Z,41.37
2019-01-25T04:51:44.633Z,41.85
2019-01-25T04:54:14.089Z,42.07
2019-01-25T04:56:43.590Z,42.10
2019-01-25T04:59:13.044Z,40.67
2019-01-25T05:01:42.526Z,42.75
2019-01-25T05:04:11.993Z,40.27
2019-01-25T05:06:41.320Z,42.45
2019-01-25T05:09:10.980Z,39.63
2019-01-25T05:11:40.674Z,41.23
2019-01-25T05:14:10.244Z,41.10
2019-01-25T05:16:39.734Z,43.03
2019-01-25T05:19:09.223Z,42.07
2019-01-25T05:21:39.978Z,41.77
2019-01-25T05:24:11.932Z,43.60
2019-01-25T05:26:41.376Z,44.13
2019-01-25T05:29:10.891Z,42.63
2019-01-25T05:31:40.408Z,42.43
2019-01-25T05:34:10.871Z,42.27
2019-01-25T05:36:41.144Z,43.15
2019-01-25T05:39:11.151Z,43.25
2019-01-25T05:41:41.165Z,44.05
2019-01-25T05:44:11.908Z,43.10
2019-01-25T05:46:41.343Z,45.47
2019-01-25T05:49:10.774Z,44.13
2019-01-25T05:51:40.322Z,41.77
2019-01-25T05:54:09.900Z,42.57
2019-01-25T05:56:42.815Z,41.73
2019-01-25T05:59:12.324Z,44.70
2019-01-25T06:01:44.949Z,41.60
2019-01-25T06:04:14.381Z,42.80
2019-01-25T06:06:43.964Z,44.40
2019-01-25T06:09:34.260Z,41.98
2019-01-25T06:12:03.641Z,43.80
2019-01-25T06:14:33.021Z,42.83
2019-01-25T06:17:02.371Z,42.63
2019-01-25T06:19:37.095Z,40.93
2019-01-25T06:22:06.821Z,40.83
2019-01-25T06:24:36.201Z,43.23
2019-01-25T06:27:05.801Z,41.67
2019-01-25T06:29:35.592Z,41.43
2019-01-25T06:32:05.362Z,40.60
2019-01-25T06:34:35.004Z,39.77
2019-01-25T06:37:04.696Z,39.50
2019-01-25T06:39:34.067Z,40.80
2019-01-25T06:42:03.446Z,41.73
2019-01-25T06:44:32.808Z,41.53
2019-01-25T06:47:03.203Z,39.53
2019-01-25T06:49:32.568Z,39.50
2019-01-25T06:52:01.939Z,38.42
2019-01-25T06:54:31.331Z,39.03
2019-01-25T06:57:02.347Z,39.17
2019-01-25T06:59:33.376Z,36.73
2019-01-25T07:02:04.442Z,39.40
2019-01-25T07:04:33.818Z,41.33
2019-01-25T07:07:04.830Z,39.87
2019-01-25T07:09:34.213Z,39.10
2019-01-25T07:12:03.574Z,41.67
2019-01-25T07:14:32.961Z,37.83
2019-01-25T07:17:03.025Z,39.77
2019-01-25T07:19:32.652Z,39.40
2019-01-25T07:22:02.472Z,38.73
2019-01-25T07:24:31.838Z,38.70
2019-01-25T07:27:05.328Z,38.67
2019-01-25T07:29:38.364Z,39.23
2019-01-25T07:32:10.881Z,35.97
2019-01-25T07:34:42.766Z,37.10
2019-01-25T07:37:12.389Z,34.33
2019-01-25T07:39:42.394Z,30.93
2019-01-25T07:42:12.171Z,26.53
2019-01-25T07:44:41.862Z,26.68
2019-01-25T07:47:11.406Z,21.65
2019-01-25T07:49:42.337Z,23.13
2019-01-25T07:52:13.157Z,20.62
2019-01-25T07:54:43.514Z,20.57
2019-01-25T07:57:16.149Z,19.67
2019-01-25T07:59:46.110Z,20.62
2019-01-25T08:02:15.714Z,22.80
2019-01-25T08:05:06.695Z,21.63
2019-01-25T08:07:36.157Z,19.33
2019-01-25T08:10:12.737Z,20.07
2019-01-25T08:12:42.342Z,19.90
2019-01-25T08:15:46.391Z,19.53
2019-01-25T08:18:16.032Z,19.90
2019-01-25T08:20:45.411Z,17.60
2019-01-25T08:23:14.881Z,16.07
2019-01-25T08:25:44.317Z,18.57
2019-01-25T08:28:13.950Z,19.07
2019-01-25T08:30:43.600Z,19.20
2019-01-25T08:33:14.023Z,17.23
2019-01-25T08:35:43.776Z,16.10
2019-01-25T08:38:13.552Z,15.63
2019-01-25T08:40:43.145Z,16.20
2019-01-25T08:43:12.862Z,15.20
2019-01-25T08:45:44.147Z,17.40
2019-01-25T08:48:13.879Z,14.83
2019-01-25T08:50:43.897Z,16.37
2019-01-25T08:53:19.609Z,14.13
2019-01-25T08:55:49.537Z,13.07
2019-01-25T08:58:19.482Z,15.00
2019-01-25T09:00:49.470Z,13.30
2019-01-25T09:03:21.267Z,13.13
2019-01-25T09:05:53.725Z,14.97
2019-01-25T09:08:25.235Z,14.47
2019-01-25T09:10:57.665Z,13.07
2019-01-25T09:13:28.423Z,12.60
2019-01-25T09:15:59.394Z,11.30
2019-01-25T09:18:29.205Z,12.13
2019-01-25T09:21:01.245Z,11.40
2019-01-25T09:23:30.960Z,11.37
2019-01-25T09:26:04.606Z,11.50
2019-01-25T09:28:41.647Z,11.10
2019-01-25T09:31:08.653Z,11.07
2019-01-25T09:33:38.520Z,12.17
2019-01-25T09:36:14.305Z,11.67
2019-01-25T09:38:45.038Z,12.17
2019-01-25T09:41:17.400Z,12.73
2019-01-25T09:43:47.031Z,11.90
2019-01-25T09:46:19.227Z,12.87
2019-01-25T09:48:48.901Z,11.47
2019-01-25T09:51:36.861Z,11.20
2019-01-25T09:54:07.715Z,11.47
2019-01-25T09:56:43.363Z,12.50
2019-01-25T09:59:13.910Z,12.00
2019-01-25T10:01:43.619Z,11.80
2019-01-25T10:04:21.347Z,11.43
2019-01-25T10:06:55.629Z,10.60
2019-01-25T10:09:29.955Z,10.38
2019-01-25T10:12:01.218Z,10.67
2019-01-25T10:14:32.520Z,9.50
2019-01-25T10:17:07.371Z,10.60
2019-01-25T10:19:37.119Z,10.80
2019-01-25T10:22:12.888Z,10.20
2019-01-25T10:24:43.280Z,11.07
2019-01-25T10:27:13.193Z,10.97
2019-01-25T10:29:46.055Z,11.40
2019-01-25T10:32:15.968Z,10.03
2019-01-25T10:34:45.961Z,9.67
2019-01-25T10:37:15.650Z,9.18
2019-01-25T10:39:46.388Z,8.30
2019-01-25T10:42:20.310Z,8.20
2019-01-25T10:44:50.010Z,9.48
2019-01-25T10:47:20.285Z,8.57
2019-01-25T10:49:50.297Z,8.63
2019-01-25T10:52:20.607Z,8.83
2019-01-25T10:54:50.329Z,8.50
2019-01-25T10:57:23.493Z,8.57
2019-01-25T10:59:53.295Z,8.47
2019-01-25T11:02:24.682Z,8.00
2019-01-25T11:04:54.411Z,9.00
2019-01-25T11:07:24.129Z,8.40
2019-01-25T11:09:53.779Z,7.07
2019-01-25T11:12:23.343Z,7.62
2019-01-25T11:14:52.839Z,7.33
2019-01-25T11:17:26.794Z,6.20
2019-01-25T11:19:56.683Z,6.37
2019-01-25T11:22:26.682Z,6.20
2019-01-25T11:24:56.255Z,6.93
2019-01-25T11:27:26.103Z,5.93
2019-01-25T11:29:56.575Z,6.53
2019-01-25T11:32:26.461Z,6.58
2019-01-25T11:35:29.808Z,6.30
2019-01-25T11:37:56.415Z,6.60
2019-01-25T11:40:40.822Z,6.17
2019-01-25T11:43:13.250Z,6.13
2019-01-25T11:45:43.031Z,6.03
2019-01-25T11:48:15.198Z,5.77
2019-01-25T11:50:47.139Z,5.60
2019-01-25T11:53:17.828Z,6.53
2019-01-25T11:55:47.540Z,6.23
2019-01-25T11:58:21.143Z,6.93
2019-01-25T12:00:55.462Z,6.17
2019-01-25T12:03:31.683Z,6.03
2019-01-25T12:06:01.555Z,6.87
2019-01-25T12:08:34.036Z,6.60
2019-01-25T12:11:06.697Z,6.37
2019-01-25T12:13:37.097Z,6.60
2019-01-25T12:16:09.137Z,6.28
2019-01-25T12:18:39.192Z,6.30
2019-01-25T12:21:09.010Z,6.97
2019-01-25T12:23:42.912Z,6.53
2019-01-25T12:26:14.285Z,6.97
2019-01-25T12:28:46.018Z,6.58
2019-01-25T12:31:18.560Z,6.12
2019-01-25T12:33:48.932Z,5.80
2019-01-25T12:36:21.637Z,6.10
2019-01-25T12:38:51.853Z,6.87
2019-01-25T12:41:26.286Z,7.17
2019-01-25T12:43:58.676Z,6.87
2019-01-25T12:46:30.041Z,7.30
2019-01-25T12:49:02.876Z,6.60
2019-01-25T12:52:54.240Z,6.43
2019-01-25T12:54:24.190Z,5.53
2019-01-25T12:56:58.468Z,5.53
2019-01-25T12:59:29.944Z,5.97
2019-01-25T13:02:01.650Z,5.30
2019-01-25T13:04:32.868Z,6.33
2019-01-25T13:07:02.504Z,6.12
2019-01-25T13:09:34.260Z,5.93
2019-01-25T13:12:13.038Z,6.20
2019-01-25T13:14:50.989Z,5.57
2019-01-25T13:17:22.444Z,6.40
2019-01-25T13:19:52.322Z,6.53
2019-01-25T13:25:19.216Z,6.80
2019-01-25T13:27:48.750Z,6.47
2019-01-25T13:30:27.714Z,6.40
2019-01-25T13:32:57.819Z,6.37
2019-01-25T13:35:27.391Z,6.83
2019-01-25T13:37:56.766Z,6.77
2019-01-25T13:40:28.234Z,6.60
2019-01-25T13:42:57.922Z,6.25
2019-01-25T13:45:27.682Z,7.00
2019-01-25T13:47:57.117Z,7.30
2019-01-25T13:50:29.131Z,6.90
2019-01-25T13:52:58.823Z,7.40
2019-01-25T13:55:28.330Z,7.53
2019-01-25T13:57:57.774Z,7.40
2019-01-25T14:00:33.390Z,7.12
2019-01-25T14:03:02.768Z,7.60
2019-01-25T14:05:32.263Z,7.90
2019-01-25T14:08:01.938Z,7.20
2019-01-25T14:10:38.035Z,7.40
2019-01-25T14:13:07.490Z,7.17
2019-01-25T14:15:37.710Z,6.75
2019-01-25T14:18:07.150Z,7.60
2019-01-25T14:20:36.850Z,7.83
2019-01-25T14:23:06.292Z,7.87
2019-01-25T14:25:35.655Z,7.70
2019-01-25T14:28:05.390Z,7.37
2019-01-25T14:30:40.771Z,8.07
2019-01-25T14:33:10.571Z,7.93
2019-01-25T14:35:40.002Z,7.07
2019-01-25T14:38:10.183Z,7.93
2019-01-25T14:40:40.494Z,8.30
2019-01-25T14:43:09.899Z,7.27
2019-01-25T14:45:39.760Z,7.47
2019-01-25T14:48:09.198Z,7.30
2019-01-25T14:50:38.898Z,6.73
2019-01-25T14:53:08.575Z,7.53
2019-01-25T14:55:37.961Z,8.27
2019-01-25T14:58:07.451Z,7.97
2019-01-25T15:00:37.692Z,7.93
2019-01-25T15:03:07.067Z,8.27
2019-01-25T15:05:36.446Z,8.10
2019-01-25T15:08:05.950Z,8.40
2019-01-25T15:10:35.679Z,8.50
2019-01-25T15:13:06.937Z,8.30
2019-01-25T15:15:36.834Z,7.77
2019-01-25T15:18:07.012Z,8.70
2019-01-25T15:20:36.858Z,7.97
2019-01-25T15:23:06.497Z,8.27
2019-01-25T15:25:51.350Z,7.80
2019-01-25T15:28:23.284Z,9.63
2019-01-25T15:30:56.052Z,8.67
2019-01-25T15:33:25.867Z,8.53
2019-01-25T15:35:55.454Z,8.00
2019-01-25T15:38:28.262Z,8.90
2019-01-25T15:41:00.796Z,8.50
2019-01-25T15:43:37.359Z,8.85
2019-01-25T15:46:09.886Z,9.17
2019-01-25T15:48:45.296Z,8.63
2019-01-25T15:51:12.907Z,9.80
2019-01-25T15:53:42.680Z,9.27
2019-01-25T15:56:14.627Z,8.70
2019-01-25T15:58:49.432Z,9.17
2019-01-25T16:01:21.615Z,9.03
2019-01-25T16:03:54.507Z,9.60
2019-01-25T16:06:24.103Z,9.15
2019-01-25T16:08:55.482Z,8.70
2019-01-25T16:11:25.725Z,9.17
2019-01-25T16:13:57.011Z,9.77
2019-01-25T16:16:30.198Z,10.03
2019-01-25T16:19:01.984Z,9.27
2019-01-25T16:21:34.576Z,10.00
2019-01-25T16:24:07.867Z,9.73
2019-01-25T16:26:38.897Z,11.23
2019-01-25T16:29:13.172Z,11.80
2019-01-25T16:31:42.646Z,11.37
2019-01-25T16:34:18.585Z,10.20
2019-01-25T16:36:48.624Z,10.87
2019-01-25T16:39:18.884Z,12.20
2019-01-25T16:41:52.306Z,11.50
2019-01-25T16:44:25.724Z,12.90
2019-01-25T16:47:04.803Z,11.40
2019-01-25T16:49:37.434Z,11.70
2019-01-25T16:52:06.886Z,11.97
2019-01-25T16:54:40.319Z,12.82
2019-01-25T16:57:16.622Z,10.77
2019-01-25T16:59:47.921Z,11.43
2019-01-25T17:02:20.476Z,11.43
2019-01-25T17:04:50.039Z,11.75
2019-01-25T17:07:19.895Z,12.37
2019-01-25T17:09:51.098Z,11.57
2019-01-25T17:12:20.764Z,11.07
2019-01-25T17:14:52.045Z,12.07
2019-01-25T17:17:23.116Z,11.07
2019-01-25T17:19:58.761Z,10.83
2019-01-25T17:22:31.347Z,11.07
2019-01-25T17:25:00.726Z,12.35
2019-01-25T17:27:32.257Z,12.97
2019-01-25T17:30:01.903Z,11.93
2019-01-25T17:32:38.977Z,11.50
2019-01-25T17:35:09.344Z,12.80
2019-01-25T17:37:41.412Z,12.77
2019-01-25T17:40:18.260Z,12.55
2019-01-25T17:42:48.470Z,11.25
2019-01-25T17:45:22.151Z,12.82
2019-01-25T17:47:54.866Z,11.07
2019-01-25T17:50:26.640Z,10.27
2019-01-25T17:52:56.268Z,11.25
2019-01-25T17:55:25.836Z,10.40
2019-01-25T17:57:55.265Z,9.03
2019-01-25T18:03:13.824Z,8.73
2019-01-25T18:05:46.332Z,10.05
2019-01-25T18:08:18.617Z,9.73
2019-01-25T18:10:50.862Z,9.47
2019-01-25T18:13:29.204Z,8.73
2019-01-25T18:16:01.809Z,9.50
2019-01-25T18:18:35.517Z,8.00
2019-01-25T18:21:06.446Z,9.55
2019-01-25T18:23:41.994Z,8.93
2019-01-25T18:26:18.403Z,9.13
2019-01-25T18:29:15.874Z,8.20
2019-01-25T18:31:54.368Z,8.08
2019-01-25T18:34:44.048Z,8.53
2019-01-25T18:37:39.890Z,7.80
2019-01-25T18:40:09.693Z,8.07
2019-01-25T18:42:45.143Z,8.37
2019-01-25T18:45:31.421Z,7.37
2019-01-25T18:51:09.842Z,7.80
2019-01-25T18:54:10.125Z,6.77
2019-01-25T18:59:55.577Z,7.40
2019-01-25T19:02:43.669Z,7.83
2019-01-25T19:12:20.823Z,6.67
2019-01-25T19:15:17.895Z,7.73
2019-01-25T19:34:15.861Z,5.90
2019-01-25T19:36:48.322Z,6.17
2019-01-25T19:39:19.638Z,6.58
2019-01-25T19:41:55.159Z,8.03
2019-01-25T19:44:24.896Z,5.78
2019-01-25T19:46:54.518Z,6.00
2019-01-25T19:49:25.572Z,6.33
2019-01-25T19:51:56.818Z,6.00
2019-01-25T19:54:30.009Z,5.70
2019-01-25T19:57:01.019Z,5.83
2019-01-25T19:59:30.576Z,6.33
2019-01-25T20:02:02.257Z,6.10
2019-01-25T20:04:31.749Z,6.17
2019-01-25T20:07:01.261Z,6.00
2019-01-25T20:09:30.783Z,6.07
2019-01-25T20:12:00.412Z,6.33
2019-01-25T20:14:32.636Z,6.10
2019-01-25T20:17:02.167Z,6.43
2019-01-25T20:19:31.581Z,6.63
2019-01-25T20:22:01.456Z,5.67
2019-01-25T20:24:31.248Z,6.83
2019-01-25T20:27:00.733Z,5.90
2019-01-25T20:29:30.158Z,6.28
2019-01-25T20:31:59.923Z,6.33
2019-01-25T20:34:29.317Z,5.30
2019-01-25T20:36:59.219Z,5.42
2019-01-25T20:39:35.143Z,5.67
2019-01-25T20:42:04.664Z,5.37
2019-01-25T20:44:34.378Z,5.57
2019-01-25T20:47:03.908Z,5.20
2019-01-25T20:49:33.242Z,5.20
2019-01-25T20:52:03.070Z,4.87
2019-01-25T20:54:33.950Z,5.00
2019-01-25T20:57:03.472Z,4.93
2019-01-25T20:59:33.176Z,5.00
2019-01-25T21:02:04.220Z,4.97
2019-01-25T21:04:33.721Z,4.87
2019-01-25T21:07:04.468Z,5.30
2019-01-25T21:09:34.109Z,5.63
2019-01-25T21:12:03.840Z,5.20
2019-01-25T21:14:33.421Z,5.17
2019-01-25T21:17:04.811Z,4.17
2019-01-25T21:19:34.151Z,4.85
2019-01-25T21:22:03.908Z,5.07
2019-01-25T21:24:33.657Z,4.87
2019-01-25T21:27:03.631Z,4.87
2019-01-25T21:29:33.438Z,4.70
2019-01-25T21:32:03.059Z,4.58
2019-01-25T21:34:36.598Z,4.40
2019-01-25T21:37:06.090Z,4.37
2019-01-25T21:39:43.576Z,4.00
2019-01-25T21:42:13.765Z,4.25
2019-01-25T21:44:43.917Z,4.22
2019-01-25T21:47:13.524Z,3.80
2019-01-25T21:49:42.982Z,4.30
2019-01-25T21:52:15.919Z,4.40
2019-01-25T21:54:45.889Z,4.30
2019-01-25T21:57:15.293Z,4.67
2019-01-25T21:59:46.666Z,4.90
2019-01-25T22:02:16.239Z,4.10
2019-01-25T22:04:53.339Z,4.60
2019-01-25T22:07:20.196Z,4.73
2019-01-25T22:09:50.025Z,5.27
2019-01-25T22:12:19.564Z,4.97
2019-01-25T22:14:49.235Z,4.43
2019-01-25T22:17:18.892Z,4.23
2019-01-25T22:19:50.169Z,4.93
2019-01-25T22:22:19.631Z,4.55
2019-01-25T22:24:55.092Z,4.70
2019-01-25T22:27:24.353Z,4.17
2019-01-25T22:29:53.855Z,4.62
2019-01-25T22:32:23.640Z,4.23
2019-01-25T22:34:53.418Z,4.58
2019-01-25T22:37:22.910Z,4.00
2019-01-25T22:39:55.311Z,4.60
2019-01-25T22:42:24.945Z,4.53
2019-01-25T22:44:54.430Z,4.83
2019-01-25T22:47:24.824Z,4.73
2019-01-25T22:49:55.667Z,4.80
2019-01-25T22:52:25.175Z,5.10
2019-01-25T22:54:55.799Z,4.90
2019-01-25T22:57:25.455Z,5.83
2019-01-25T22:59:54.939Z,6.13
2019-01-25T23:02:24.456Z,6.10
2019-01-25T23:05:16.763Z,5.67
2019-01-25T23:07:51.353Z,5.27
2019-01-25T23:10:26.301Z,5.33
2019-01-25T23:12:55.898Z,5.40
2019-01-25T23:15:27.009Z,5.55
2019-01-25T23:17:56.553Z,5.33
2019-01-25T23:20:26.353Z,5.90
2019-01-25T23:22:55.832Z,5.03
2019-01-25T23:25:26.298Z,5.57
2019-01-25T23:27:58.007Z,5.80
2019-01-25T23:30:29.594Z,5.70
2019-01-25T23:33:01.430Z,5.35
2019-01-25T23:35:31.495Z,5.13
2019-01-25T23:38:06.830Z,5.37
2019-01-25T23:40:36.637Z,5.20
2019-01-25T23:43:07.745Z,5.77
2019-01-25T23:45:37.386Z,5.50
2019-01-25T23:48:07.034Z,6.20
2019-01-25T23:50:36.476Z,5.53
2019-01-25T23:53:09.159Z,6.30
2019-01-25T23:55:38.991Z,6.28
2019-01-25T23:58:08.503Z,6.15
